Stations météo

Publicité
Uccle, Belgique (6447): Température de l'air & dewpoint: 14.01.2020 09:00:00 - 20.01.2020 09:00:00 (CET)Uccle, Belgique (6447): Vitesse du vent & gusts: 14.01.2020 09:00:00 - 20.01.2020 09:00:00 (CET)Uccle, Belgique (6447): Direction du vent: 14.01.2020 09:00:00 - 20.01.2020 09:00:00 (CET)Uccle, Belgique (6447): reduced air pressure: 14.01.2020 09:00:00 - 20.01.2020 09:00:00 (CET)Uccle, Belgique (6447): Ensoleillement: 14.01.2020 09:00:00 - 20.01.2020 09:00:00 (CET)Uccle, Belgique (6447): Quantités de précipitations: 14.01.2020 09:00:00 - 20.01.2020 09:00:00 (CET)
Date & Time tt [°C] td [°C] ff [km/h] ff [knt] fx [km/h] fx [knt] dd ppp [hPa] sd [min] rr [mm]
20.01.2020 09:00:00 - - - - - - - - - -
20.01.2020 08:00:00 2,1 1,6 4 2 12 6 ESE 1047,6 0 0,0
20.01.2020 07:00:00 2,5 1,9 7 4 18 10 NE 1047,4 0 0,0
20.01.2020 06:00:00 1,4 0,7 10 5 13 7 NNE 1047,0 0 0,0
20.01.2020 05:00:00 3,0 2,4 9 5 16 9 NNE 1046,8 0 0,0
20.01.2020 04:00:00 2,0 1,1 8 5 14 7 NNE 1046,8 0 0,0
20.01.2020 03:00:00 2,9 1,9 9 5 16 9 NNE 1046,9 0 0,0
20.01.2020 02:00:00 3,4 2,2 10 5 16 9 N 1046,9 0 0,0
20.01.2020 01:00:00 3,5 2,0 11 6 22 12 N 1047,1 0 0,0
20.01.2020 00:00:00 4,1 2,0 11 6 19 11 N 1046,7 0 0,0
19.01.2020 23:00:00 4,1 1,6 12 6 19 11 N 1046,2 0 0,0
19.01.2020 22:00:00 4,3 1,3 10 6 18 10 NNE 1045,9 0 0,0
19.01.2020 21:00:00 4,7 1,1 10 5 19 10 N 1045,4 0 0,0
19.01.2020 20:00:00 4,8 1,2 11 6 22 12 N 1044,7 0 0,0
19.01.2020 19:00:00 5,2 1,4 11 6 29 16 N 1044,1 0 0,0
19.01.2020 18:00:00 5,7 1,3 15 8 23 13 N 1043,3 0 0,0
19.01.2020 17:00:00 6,5 1,3 18 10 34 18 N 1042,1 16 0,0
19.01.2020 16:00:00 6,7 1,7 18 10 36 20 N 1041,3 7 0,0
19.01.2020 15:00:00 7,0 2,2 13 7 39 21 N 1040,4 19 0,0
19.01.2020 14:00:00 6,6 2,2 18 10 33 18 N 1040,1 34 0,1
19.01.2020 13:00:00 6,3 2,8 18 10 26 14 N 1039,8 59 0,0
19.01.2020 12:00:00 5,1 2,8 15 8 28 15 N 1039,7 35 0,0
19.01.2020 11:00:00 3,8 2,7 10 5 30 16 NNW 1039,2 23 0,1
19.01.2020 10:00:00 2,4 1,8 10 5 26 14 NNW 1038,1 1 0,9
19.01.2020 09:00:00 0,7 0,2 6 3 10 5 W 1037,0 0 0,0
19.01.2020 08:00:00 0,5 -0,1 6 3 13 7 WSW 1036,1 0 0,0
19.01.2020 07:00:00 0,1 -0,4 7 4 12 6 WSW 1035,2 0 0,0
19.01.2020 06:00:00 0,6 0,0 5 3 16 9 WNW 1035,1 0 0,1
19.01.2020 05:00:00 -0,3 -1,0 6 3 9 5 WSW 1034,6 0 0,0
19.01.2020 04:00:00 0,1 -0,6 6 3 10 5 W 1034,0 0 0,0
19.01.2020 03:00:00 0,2 -0,5 5 3 10 5 W 1033,4 0 0,0
19.01.2020 02:00:00 0,2 -0,6 5 3 10 5 W 1032,8 0 0,0
19.01.2020 01:00:00 0,3 -0,6 4 2 8 5 WSW 1031,9 0 0,0
19.01.2020 00:00:00 0,3 -0,7 5 3 9 5 SW 1031,5 0 0,0
18.01.2020 23:00:00 1,2 -0,1 4 2 11 6 W 1031,1 0 0,0
18.01.2020 22:00:00 1,8 0,1 5 3 12 6 W 1030,6 0 0,0
18.01.2020 21:00:00 2,5 0,3 7 4 16 9 WNW 1030,1 0 0,0
18.01.2020 20:00:00 3,4 0,9 11 6 18 10 WNW 1029,7 0 0,0
18.01.2020 19:00:00 3,7 0,7 7 4 14 7 WNW 1029,2 0 0,0
18.01.2020 18:00:00 5,0 1,4 10 5 19 10 W 1028,3 0 0,0
18.01.2020 17:00:00 5,7 1,6 10 6 23 12 W 1027,3 23 0,0
18.01.2020 16:00:00 6,4 1,7 13 7 32 18 W 1026,7 24 0,0
18.01.2020 15:00:00 6,5 1,9 12 6 25 14 WSW 1026,3 11 0,0
18.01.2020 14:00:00 6,8 2,8 14 8 27 14 W 1026,1 20 0,0
18.01.2020 13:00:00 6,2 3,2 11 6 26 14 W 1026,0 40 0,0
18.01.2020 12:00:00 5,6 2,9 10 5 23 12 WSW 1026,1 54 0,0
18.01.2020 11:00:00 4,3 2,4 10 5 23 12 WSW 1025,6 29 0,0
18.01.2020 10:00:00 3,4 1,9 10 5 23 12 WSW 1025,0 12 0,0
18.01.2020 09:00:00 3,3 1,8 10 5 25 13 SW 1024,2 0 0,0
18.01.2020 08:00:00 3,5 1,8 14 8 34 18 SW 1023,3 0 0,0
18.01.2020 07:00:00 3,9 2,1 14 8 34 19 SW 1022,7 0 0,0
18.01.2020 06:00:00 4,0 2,2 15 8 31 17 SW 1022,4 0 0,0
18.01.2020 05:00:00 3,9 1,9 17 9 36 19 SW 1022,0 0 0,0
18.01.2020 04:00:00 3,8 1,5 18 10 34 19 SW 1021,9 0 0,0
18.01.2020 03:00:00 3,9 1,5 17 9 37 20 SW 1021,8 0 0,0
18.01.2020 02:00:00 4,3 1,6 22 12 39 21 SW 1021,6 0 0,0
18.01.2020 01:00:00 4,5 1,7 22 12 38 21 SW 1021,2 0 0,0
18.01.2020 00:00:00 4,9 2,2 16 9 34 18 SW 1020,8 0 0,0
17.01.2020 23:00:00 5,4 2,8 16 8 34 18 SSW 1020,4 0 0,0
17.01.2020 22:00:00 5,1 2,5 13 7 25 14 SW 1019,9 0 0,0
17.01.2020 21:00:00 6,0 2,7 10 6 30 16 SW 1019,2 0 0,0
17.01.2020 20:00:00 6,8 2,9 16 9 32 18 SW 1018,7 0 0,0
17.01.2020 19:00:00 7,0 2,7 14 8 49 26 SW 1017,7 0 0,0
17.01.2020 18:00:00 7,9 3,7 14 7 36 20 SW 1016,7 0 0,0
17.01.2020 17:00:00 9,2 4,6 17 9 44 24 WSW 1015,3 11 0,0
17.01.2020 16:00:00 9,9 4,9 16 9 48 26 SW 1014,5 27 0,0
17.01.2020 15:00:00 9,9 6,9 9 5 34 19 WSW 1013,9 0 0,0
17.01.2020 14:00:00 9,8 7,4 17 9 42 23 SW 1013,9 0 0,0
17.01.2020 13:00:00 9,1 7,5 14 8 35 19 SSW 1013,9 0 0,0
17.01.2020 12:00:00 8,7 7,3 19 10 42 23 SSW 1014,0 0 0,1
17.01.2020 11:00:00 8,3 7,2 20 11 36 19 S 1014,0 0 0,1
17.01.2020 10:00:00 8,5 6,9 21 11 45 24 S 1013,8 0 0,2
17.01.2020 09:00:00 8,9 6,4 22 12 48 26 S 1014,0 0 0,2
17.01.2020 08:00:00 10,2 5,5 23 12 45 25 S 1013,8 0 0,0
17.01.2020 07:00:00 10,1 5,3 25 14 45 24 S 1013,7 0 0,0
17.01.2020 06:00:00 9,5 5,2 21 12 41 22 S 1013,6 0 0,0
17.01.2020 05:00:00 9,8 5,3 24 13 41 22 S 1013,7 0 0,0
17.01.2020 04:00:00 9,7 5,3 23 13 39 21 SSE 1014,4 0 0,0
17.01.2020 03:00:00 9,6 5,2 22 12 42 23 S 1015,3 0 0,0
17.01.2020 02:00:00 9,5 4,9 23 12 42 23 SSE 1015,8 0 0,0
17.01.2020 01:00:00 9,6 4,9 29 16 47 25 SSE 1016,2 0 0,0
17.01.2020 00:00:00 9,8 5,0 30 16 50 27 S 1016,4 0 0,0
16.01.2020 23:00:00 10,2 5,3 27 15 50 27 SSE 1016,5 0 0,0
16.01.2020 22:00:00 10,0 5,9 21 12 33 18 S 1017,3 0 0,0
16.01.2020 21:00:00 9,8 6,0 22 12 32 18 SSE 1018,0 0 0,0
16.01.2020 20:00:00 10,0 6,3 23 13 42 23 SSE 1018,5 0 0,0
16.01.2020 19:00:00 10,4 6,7 25 14 42 23 SSE 1019,0 0 0,0
16.01.2020 18:00:00 10,5 6,9 24 13 34 18 SSE 1019,6 0 0,0
16.01.2020 17:00:00 10,8 7,3 18 10 32 17 SSE 1019,9 39 0,0
16.01.2020 16:00:00 11,4 7,6 21 11 31 17 SSE 1020,3 60 0,0
16.01.2020 15:00:00 10,8 7,2 18 10 35 19 SSE 1020,8 38 0,0
16.01.2020 14:00:00 11,2 7,4 19 10 38 21 S 1021,6 57 0,0
16.01.2020 13:00:00 10,0 6,8 18 10 39 21 S 1022,9 47 0,0
16.01.2020 12:00:00 8,6 6,5 23 12 39 21 SSE 1023,7 48 0,0
16.01.2020 11:00:00 5,9 4,7 29 15 42 23 SSE 1024,2 39 0,0
16.01.2020 10:00:00 5,1 4,3 22 12 31 17 SSE 1024,1 41 0,0
16.01.2020 09:00:00 4,2 3,4 17 9 26 14 SSE 1024,5 0 0,0
16.01.2020 08:00:00 4,0 3,3 15 8 20 11 SSE 1024,8 0 0,0
16.01.2020 07:00:00 4,1 3,4 14 8 21 11 SSE 1024,7 0 0,0
16.01.2020 06:00:00 4,1 3,5 16 8 23 12 SSE 1024,6 0 0,0
16.01.2020 05:00:00 4,0 3,3 10 6 16 9 S 1024,4 0 0,0
16.01.2020 04:00:00 4,5 3,7 11 6 17 9 S 1024,1 0 0,0
16.01.2020 03:00:00 4,4 3,7 10 5 16 9 S 1023,9 0 0,0
16.01.2020 02:00:00 4,7 3,9 9 5 14 8 S 1023,6 0 0,0
16.01.2020 01:00:00 5,3 4,2 7 4 19 10 SSW 1023,0 0 0,0
16.01.2020 00:00:00 5,4 4,2 10 5 20 11 SW 1022,3 0 0,0
15.01.2020 23:00:00 5,8 4,4 11 6 19 11 SW 1021,2 0 0,0
15.01.2020 22:00:00 6,1 4,5 7 4 20 11 SW 1020,2 0 0,0
15.01.2020 21:00:00 6,4 4,6 9 5 18 10 SW 1019,3 0 0,0
15.01.2020 20:00:00 7,3 5,2 10 6 22 12 WSW 1018,3 0 0,0
15.01.2020 19:00:00 8,2 6,3 11 6 35 19 WSW 1016,7 0 0,0
15.01.2020 18:00:00 9,7 7,5 19 10 41 22 SW 1014,7 0 0,1
15.01.2020 17:00:00 9,5 7,2 24 13 47 25 SW 1013,0 0 0,8
15.01.2020 16:00:00 10,2 6,7 26 14 51 28 SSW 1011,1 0 0,4
15.01.2020 15:00:00 10,5 6,4 26 14 54 29 SSW 1010,3 0 0,3
15.01.2020 14:00:00 11,4 5,1 27 14 63 34 SSW 1009,8 0 0,0
15.01.2020 13:00:00 11,4 4,8 29 16 59 32 S 1009,0 8 0,0
15.01.2020 12:00:00 11,3 4,9 29 16 70 38 S 1009,0 23 0,0
15.01.2020 11:00:00 10,7 4,5 29 16 72 39 S 1008,8 2 0,0
15.01.2020 10:00:00 10,1 4,2 34 19 61 33 S 1008,7 0 0,0
15.01.2020 09:00:00 9,9 4,2 34 18 63 34 S 1008,4 0 0,0
15.01.2020 08:00:00 10,1 4,4 27 14 61 33 S 1008,3 0 0,0
15.01.2020 07:00:00 10,2 4,8 32 18 61 33 S 1007,8 0 0,0
15.01.2020 06:00:00 10,6 5,0 32 17 57 31 S 1007,8 0 0,0
15.01.2020 05:00:00 10,8 5,2 33 18 69 38 S 1007,6 0 0,0
15.01.2020 04:00:00 10,9 5,6 32 18 67 36 S 1007,8 0 0,0
15.01.2020 03:00:00 10,7 6,6 29 16 61 33 SSW 1007,7 0 0,0
15.01.2020 02:00:00 10,8 7,2 32 17 64 35 SSW 1007,7 0 0,0
15.01.2020 01:00:00 10,8 7,6 32 18 67 36 SSW 1007,5 0 0,0
15.01.2020 00:00:00 10,5 8,1 29 15 61 33 SSW 1007,6 0 0,2
14.01.2020 23:00:00 11,1 7,5 33 18 69 37 SSW 1007,0 0 0,0
14.01.2020 22:00:00 11,0 7,8 36 19 68 37 SSW 1006,5 0 0,2
14.01.2020 21:00:00 10,7 7,8 33 18 74 40 SSW 1006,3 0 0,0
14.01.2020 20:00:00 11,2 7,7 32 17 74 40 SSW 1006,1 0 0,0
14.01.2020 19:00:00 11,2 8,2 36 19 65 35 SSW 1005,8 0 0,0
14.01.2020 18:00:00 11,2 8,2 33 18 68 37 SSW 1005,5 0 0,0
14.01.2020 17:00:00 10,7 7,7 36 19 69 38 SSW 1005,0 0 0,0
14.01.2020 16:00:00 10,6 6,7 37 20 63 34 SSW 1004,8 0 0,0
14.01.2020 15:00:00 10,7 6,5 32 17 67 36 SSW 1004,7 0 0,0
14.01.2020 14:00:00 10,5 6,9 35 19 59 32 SSW 1004,8 0 0,0
14.01.2020 13:00:00 10,3 6,9 32 18 63 34 SSW 1005,4 0 0,0
14.01.2020 12:00:00 9,3 6,9 28 15 55 30 SSW 1005,8 0 0,0
14.01.2020 11:00:00 10,2 6,7 27 15 60 33 SSW 1005,7 0 0,0
14.01.2020 10:00:00 10,3 6,2 24 13 63 34 SSW 1005,3 0 0,0
14.01.2020 09:00:00 10,2 6,2 27 15 67 36 SSW 1004,6 0 0,0

tt = Température de l'air
td = dewpoint
ff = Vitesse du vent
fx = gusts
dd = Direction du vent
ppp = reduced air pressure
sd = Ensoleillement
rr = Quantités de précipitations

stations d'obs. à proximité